createdAt,value
2022-08-19T00:00:04.706Z,11.16
2022-08-19T00:01:28.972Z,11.91
2022-08-19T00:02:51.560Z,12.69
2022-08-19T00:04:14.707Z,13.43
2022-08-19T00:05:36.963Z,14.69
2022-08-19T00:07:01.940Z,10.71
2022-08-19T00:08:23.165Z,11.41
2022-08-19T00:11:25.507Z,13.91
2022-08-19T00:12:47.657Z,11.79
2022-08-19T00:14:10.496Z,14.16
2022-08-19T00:15:34.317Z,11.24
2022-08-19T00:17:04.688Z,14.26
2022-08-19T00:18:47.026Z,12.91
2022-08-19T00:20:13.127Z,12.20
2022-08-19T00:21:34.962Z,13.63
2022-08-19T00:22:56.337Z,14.39
2022-08-19T00:24:17.917Z,13.26
2022-08-19T00:25:39.295Z,13.63
2022-08-19T00:27:25.227Z,12.63
2022-08-19T00:28:26.659Z,12.94
2022-08-19T00:29:52.545Z,12.92
2022-08-19T00:31:12.824Z,12.89
2022-08-19T00:32:34.448Z,10.19
2022-08-19T00:33:55.552Z,14.28
2022-08-19T00:35:16.963Z,13.93
2022-08-19T00:36:40.504Z,15.33
2022-08-19T00:38:02.788Z,12.22
2022-08-19T00:39:24.111Z,13.94
2022-08-19T00:40:45.269Z,12.99
2022-08-19T00:42:06.584Z,14.32
2022-08-19T00:43:28.973Z,12.02
2022-08-19T00:44:52.177Z,13.61
2022-08-19T00:46:14.084Z,14.53
2022-08-19T00:47:35.285Z,13.03
2022-08-19T00:48:56.897Z,13.86
2022-08-19T00:50:20.070Z,14.17
2022-08-19T00:51:41.613Z,16.11
2022-08-19T00:53:03.123Z,12.96
2022-08-19T00:54:31.101Z,15.57
2022-08-19T00:55:48.918Z,15.41
2022-08-19T00:57:14.013Z,14.70
2022-08-19T00:58:35.210Z,13.77
2022-08-19T01:00:02.569Z,15.73
2022-08-19T01:01:20.541Z,13.31
2022-08-19T01:02:42.165Z,15.66
2022-08-19T01:04:03.441Z,12.42
2022-08-19T01:05:27.571Z,14.14
2022-08-19T01:06:49.775Z,12.36
2022-08-19T01:08:12.269Z,13.24
2022-08-19T01:09:33.579Z,11.86
2022-08-19T01:10:56.704Z,12.73
2022-08-19T01:12:18.076Z,12.93
2022-08-19T01:13:48.885Z,14.53
2022-08-19T01:15:03.723Z,14.15
2022-08-19T01:16:25.856Z,13.43
2022-08-19T01:17:47.328Z,16.11
2022-08-19T01:19:15.143Z,14.07
2022-08-19T01:20:36.519Z,15.02
2022-08-19T01:23:14.181Z,11.46
2022-08-19T01:24:35.620Z,11.08
2022-08-19T01:25:59.020Z,14.64
2022-08-19T01:27:20.871Z,14.93
2022-08-19T01:28:43.329Z,12.32
2022-08-19T01:30:05.615Z,15.31
2022-08-19T01:31:30.506Z,14.13
2022-08-19T01:32:52.318Z,11.48
2022-08-19T01:34:14.092Z,13.18
2022-08-19T01:35:35.471Z,11.65
2022-08-19T01:36:56.855Z,10.73
2022-08-19T01:38:23.642Z,10.78
2022-08-19T01:39:45.828Z,12.61
2022-08-19T01:41:09.765Z,11.63
2022-08-19T01:42:31.079Z,13.17
2022-08-19T01:44:13.447Z,12.02
2022-08-19T01:45:18.733Z,11.25
2022-08-19T01:48:02.493Z,11.12
2022-08-19T01:49:24.361Z,13.31
2022-08-19T01:50:45.742Z,12.68
2022-08-19T01:52:06.976Z,11.58
2022-08-19T01:53:33.593Z,11.01
2022-08-19T01:54:51.718Z,11.68
2022-08-19T01:56:13.733Z,12.96
2022-08-19T01:57:35.333Z,12.94
2022-08-19T01:59:00.565Z,13.57
2022-08-19T02:00:23.488Z,14.78
2022-08-19T02:01:45.806Z,14.17
2022-08-19T02:03:07.341Z,12.76
2022-08-19T02:04:28.989Z,11.94
2022-08-19T02:05:59.542Z,11.70
2022-08-19T02:07:21.080Z,12.35
2022-08-19T02:08:42.359Z,13.04
2022-08-19T02:10:08.908Z,12.53
2022-08-19T02:11:33.694Z,12.54
2022-08-19T02:12:55.169Z,11.31
2022-08-19T02:14:18.052Z,13.09
2022-08-19T02:15:39.714Z,10.91
2022-08-19T02:17:01.049Z,11.32
2022-08-19T02:18:22.349Z,13.50
2022-08-19T02:19:45.699Z,14.04
2022-08-19T02:21:07.265Z,12.47
2022-08-19T02:22:28.415Z,12.77
2022-08-19T02:23:50.129Z,12.98
2022-08-19T02:25:12.837Z,16.47
2022-08-19T02:26:34.670Z,16.96
2022-08-19T02:27:56.201Z,16.54
2022-08-19T02:29:17.666Z,17.38
2022-08-19T02:30:40.562Z,14.93
2022-08-19T02:32:01.978Z,12.92
2022-08-19T02:33:23.443Z,15.51
2022-08-19T02:34:44.970Z,17.43
2022-08-19T02:36:07.230Z,16.70
2022-08-19T02:37:29.077Z,14.37
2022-08-19T02:38:54.228Z,17.20
2022-08-19T02:40:13.612Z,14.80
2022-08-19T02:41:35.133Z,11.88
2022-08-19T02:42:57.506Z,13.56
2022-08-19T02:44:29.219Z,14.32
2022-08-19T02:45:41.960Z,13.92
2022-08-19T02:47:03.975Z,12.96
2022-08-19T02:48:25.699Z,10.81
2022-08-19T02:49:47.212Z,15.03
2022-08-19T02:51:08.629Z,13.52
2022-08-19T02:52:30.274Z,15.21
2022-08-19T02:53:51.996Z,13.03
2022-08-19T02:55:13.462Z,13.91
2022-08-19T02:56:36.226Z,12.46
2022-08-19T02:57:59.227Z,11.21
2022-08-19T02:59:23.026Z,11.34
2022-08-19T03:00:45.595Z,11.49
2022-08-19T03:02:07.155Z,10.54
2022-08-19T03:03:28.806Z,14.58
2022-08-19T03:04:50.026Z,13.96
2022-08-19T03:06:14.076Z,14.89
2022-08-19T03:07:36.087Z,17.15
2022-08-19T03:08:57.791Z,14.72
2022-08-19T03:10:19.805Z,13.76
2022-08-19T03:11:41.068Z,15.97
2022-08-19T03:13:04.732Z,16.02
2022-08-19T03:14:26.138Z,15.81
2022-08-19T03:15:48.085Z,16.75
2022-08-19T03:18:20.600Z,14.41
2022-08-19T03:19:43.700Z,13.16
2022-08-19T03:21:05.407Z,17.32
2022-08-19T03:22:27.084Z,10.45
2022-08-19T03:23:48.461Z,13.59
2022-08-19T03:25:10.038Z,16.50
2022-08-19T03:26:32.355Z,11.35
2022-08-19T03:27:53.541Z,10.94
2022-08-19T03:29:15.237Z,13.03
2022-08-19T03:30:40.718Z,12.54
2022-08-19T03:32:05.046Z,13.21
2022-08-19T03:33:28.825Z,14.21
2022-08-19T03:34:49.842Z,19.15
2022-08-19T03:36:18.553Z,20.00
2022-08-19T03:37:39.893Z,15.70
2022-08-19T03:39:04.629Z,15.41
2022-08-19T03:40:29.158Z,14.83
2022-08-19T03:42:45.386Z,10.35
2022-08-19T03:43:16.564Z,11.62
2022-08-19T03:44:37.867Z,24.91
2022-08-19T03:46:07.541Z,15.98
2022-08-19T03:47:28.635Z,18.47
2022-08-19T03:48:51.869Z,15.02
2022-08-19T03:50:15.458Z,16.77
2022-08-19T03:51:38.178Z,15.88
2022-08-19T03:52:59.328Z,15.87
2022-08-19T03:54:22.796Z,14.47
2022-08-19T03:55:44.450Z,13.80
2022-08-19T03:57:05.742Z,12.18
2022-08-19T03:58:29.093Z,14.03
2022-08-19T03:59:50.949Z,13.80
2022-08-19T04:01:15.995Z,10.23
2022-08-19T04:02:37.897Z,12.81
2022-08-19T04:04:00.912Z,14.42
2022-08-19T04:05:22.320Z,17.56
2022-08-19T04:06:45.940Z,15.71
2022-08-19T04:08:13.292Z,12.98
2022-08-19T04:09:31.184Z,15.01
2022-08-19T04:10:54.330Z,14.14
2022-08-19T04:12:15.528Z,11.74
2022-08-19T04:13:36.840Z,10.88
2022-08-19T04:14:58.315Z,11.53
2022-08-19T04:16:24.333Z,10.96
2022-08-19T04:17:47.766Z,9.68
2022-08-19T04:19:09.497Z,15.12
2022-08-19T04:20:34.681Z,14.23
2022-08-19T04:21:57.576Z,12.97
2022-08-19T04:23:19.117Z,17.12
2022-08-19T04:24:40.364Z,16.47
2022-08-19T04:26:02.549Z,16.12
2022-08-19T04:27:25.547Z,14.50
2022-08-19T04:28:48.105Z,12.95
2022-08-19T04:30:11.245Z,13.90
2022-08-19T04:31:34.375Z,13.25
2022-08-19T04:32:55.793Z,15.43
2022-08-19T04:34:26.078Z,11.13
2022-08-19T04:35:48.155Z,14.53
2022-08-19T04:37:11.621Z,14.02
2022-08-19T04:38:35.138Z,14.65
2022-08-19T04:40:02.324Z,15.34
2022-08-19T04:41:24.606Z,14.39
2022-08-19T04:42:47.334Z,15.94
2022-08-19T04:44:08.680Z,17.88
2022-08-19T04:45:43.690Z,16.02
2022-08-19T04:46:58.359Z,16.97
2022-08-19T04:49:48.017Z,18.42
2022-08-19T04:51:11.370Z,13.90
2022-08-19T04:52:32.772Z,16.17
2022-08-19T04:53:54.090Z,17.29
2022-08-19T04:55:15.586Z,17.42
2022-08-19T04:56:39.280Z,15.96
2022-08-19T04:58:03.182Z,20.34
2022-08-19T04:59:28.088Z,18.50
2022-08-19T05:00:50.983Z,22.16
2022-08-19T05:02:16.279Z,20.57
2022-08-19T05:03:37.734Z,22.26
2022-08-19T05:04:59.596Z,19.07
2022-08-19T05:07:45.873Z,23.61
2022-08-19T05:09:07.275Z,22.59
2022-08-19T05:10:32.329Z,20.08
2022-08-19T05:11:54.313Z,21.27
2022-08-19T05:13:15.826Z,21.17
2022-08-19T05:14:38.819Z,24.43
2022-08-19T05:16:01.316Z,21.58
2022-08-19T05:17:28.208Z,21.02
2022-08-19T05:18:52.046Z,19.47
2022-08-19T05:20:14.154Z,24.84
2022-08-19T05:21:35.360Z,21.04
2022-08-19T05:22:56.785Z,20.82
2022-08-19T05:24:19.905Z,18.93
2022-08-19T05:26:56.552Z,15.09
2022-08-19T05:28:19.306Z,20.20
2022-08-19T05:31:03.697Z,18.38
2022-08-19T05:32:25.454Z,20.35
2022-08-19T05:33:46.890Z,20.98
2022-08-19T05:35:08.677Z,24.55
2022-08-19T05:36:38.554Z,19.87
2022-08-19T05:38:00.123Z,21.53
2022-08-19T05:39:24.737Z,20.33
2022-08-19T05:40:46.339Z,15.37
2022-08-19T05:42:10.048Z,15.57
2022-08-19T05:43:31.583Z,16.47
2022-08-19T05:44:52.956Z,16.96
2022-08-19T05:46:27.592Z,12.23
2022-08-19T05:47:43.716Z,14.24
2022-08-19T05:50:16.442Z,14.00
2022-08-19T05:51:37.769Z,14.54
2022-08-19T05:52:59.751Z,16.22
2022-08-19T05:54:22.181Z,15.62
2022-08-19T05:55:43.640Z,15.16
2022-08-19T05:57:05.587Z,20.47
2022-08-19T05:58:28.232Z,14.14
2022-08-19T06:01:15.443Z,15.84
2022-08-19T06:02:40.531Z,19.78
2022-08-19T06:04:03.016Z,17.14
2022-08-19T06:06:50.880Z,19.93
2022-08-19T06:08:14.213Z,16.95
2022-08-19T06:09:35.725Z,17.24
2022-08-19T06:10:57.052Z,18.52
2022-08-19T06:12:18.679Z,16.74
2022-08-19T06:13:44.379Z,13.54
2022-08-19T06:15:09.045Z,21.09
2022-08-19T06:16:31.257Z,15.92
2022-08-19T06:17:52.858Z,12.83
2022-08-19T06:19:17.912Z,11.42
2022-08-19T06:20:55.376Z,11.96
2022-08-19T06:22:05.656Z,14.00
2022-08-19T06:24:54.573Z,15.66
2022-08-19T06:26:19.663Z,12.00
2022-08-19T06:27:58.690Z,13.07
2022-08-19T06:29:05.557Z,13.43
2022-08-19T06:30:29.892Z,13.92
2022-08-19T06:31:55.311Z,12.91
2022-08-19T06:33:16.403Z,12.37
2022-08-19T06:34:40.537Z,16.08
2022-08-19T06:36:01.618Z,11.52
2022-08-19T06:37:23.108Z,10.14
2022-08-19T06:38:46.424Z,10.41
2022-08-19T06:40:10.091Z,13.37
2022-08-19T06:42:54.531Z,10.26
2022-08-19T06:44:19.369Z,14.78
2022-08-19T06:45:41.400Z,13.66
2022-08-19T06:47:09.477Z,11.83
2022-08-19T06:48:39.373Z,12.34
2022-08-19T06:50:01.247Z,12.18
2022-08-19T06:51:22.142Z,10.56
2022-08-19T06:54:05.940Z,12.93
2022-08-19T06:55:30.743Z,14.08
2022-08-19T06:56:54.438Z,11.98
2022-08-19T06:58:19.042Z,14.01
2022-08-19T06:59:40.621Z,11.32
2022-08-19T07:01:05.751Z,12.10
2022-08-19T07:02:30.008Z,13.48
2022-08-19T07:03:51.810Z,13.14
2022-08-19T07:05:13.079Z,16.82
2022-08-19T07:06:44.711Z,14.07
2022-08-19T07:08:04.802Z,10.88
2022-08-19T07:09:24.760Z,14.40
2022-08-19T08:46:39.643Z,10.57
2022-08-19T08:49:58.786Z,11.12
2022-08-19T09:17:19.466Z,20.00
2022-08-19T09:25:47.141Z,10.63
2022-08-19T09:27:18.478Z,11.32
2022-08-19T09:28:36.762Z,13.04
2022-08-19T09:53:12.475Z,17.11
2022-08-19T09:56:21.213Z,9.70
2022-08-19T09:57:51.747Z,15.59
2022-08-19T09:59:16.438Z,8.28
2022-08-19T10:01:03.476Z,8.75
2022-08-19T10:04:20.389Z,9.01
2022-08-19T10:05:42.921Z,10.12
2022-08-19T10:07:11.498Z,8.04
2022-08-19T10:09:04.768Z,8.93
2022-08-19T10:13:55.311Z,20.82
2022-08-19T10:15:28.980Z,8.67
2022-08-19T10:16:50.181Z,19.29
2022-08-19T10:22:31.914Z,21.91
2022-08-19T13:35:57.690Z,13.21
2022-08-19T13:39:25.420Z,7.36
2022-08-19T13:41:07.838Z,6.89
2022-08-19T13:42:32.922Z,7.10
2022-08-19T13:44:11.160Z,6.33
2022-08-19T13:45:36.096Z,5.02
2022-08-19T13:47:03.182Z,7.72
2022-08-19T14:23:13.221Z,8.70
2022-08-19T14:24:53.211Z,5.14
2022-08-19T14:33:06.578Z,11.56
2022-08-19T14:35:52.896Z,8.29
2022-08-19T14:37:20.841Z,10.23
2022-08-19T14:38:44.427Z,7.05
2022-08-19T14:40:24.081Z,9.45
2022-08-19T14:41:47.355Z,12.30
2022-08-19T14:43:09.417Z,13.73
2022-08-19T14:44:40.594Z,11.92
2022-08-19T14:46:04.822Z,10.03
2022-08-19T14:47:29.070Z,7.68
2022-08-19T14:48:52.640Z,9.96
2022-08-19T14:50:29.424Z,10.09
2022-08-19T14:51:55.034Z,12.23
2022-08-19T14:53:18.561Z,7.36
2022-08-19T14:54:41.467Z,8.86
2022-08-19T14:56:11.317Z,6.36
2022-08-19T14:57:37.170Z,6.78
2022-08-19T14:59:16.887Z,13.62
2022-08-19T15:00:46.296Z,9.83
2022-08-19T15:02:33.660Z,7.36
2022-08-19T15:03:39.948Z,11.21
2022-08-19T15:05:02.967Z,8.67
2022-08-19T15:06:29.531Z,10.02
2022-08-19T15:07:51.890Z,8.38
2022-08-19T15:09:15.524Z,9.14
2022-08-19T15:10:39.376Z,7.89
2022-08-19T15:12:01.229Z,7.78
2022-08-19T15:13:23.261Z,6.48
2022-08-19T15:14:58.644Z,10.70
2022-08-19T15:16:41.736Z,7.63
2022-08-19T15:18:05.788Z,10.34
2022-08-19T15:19:32.243Z,20.39
2022-08-19T15:20:58.871Z,8.17
2022-08-19T15:22:20.717Z,12.42
2022-08-19T15:23:45.511Z,14.19
2022-08-19T15:25:09.914Z,8.43
2022-08-19T15:26:35.900Z,9.09
2022-08-19T15:27:57.615Z,7.33
2022-08-19T15:41:57.143Z,9.94
2022-08-19T15:43:19.594Z,10.64
2022-08-19T15:44:41.603Z,9.14
2022-08-19T15:46:04.165Z,14.06
2022-08-19T15:47:28.893Z,18.47
2022-08-19T15:48:55.988Z,11.16
2022-08-19T15:50:21.433Z,6.58
2022-08-19T15:51:44.097Z,9.86
2022-08-19T15:53:08.107Z,13.59
2022-08-19T15:54:32.090Z,10.76
2022-08-19T15:55:55.535Z,8.49
2022-08-19T15:57:19.754Z,14.52
2022-08-19T15:58:44.538Z,11.42
2022-08-19T16:00:32.606Z,7.89
2022-08-19T16:01:54.553Z,13.01
2022-08-19T16:06:52.989Z,10.76
2022-08-19T16:08:16.250Z,14.45
2022-08-19T16:09:38.888Z,9.89
2022-08-19T16:11:05.237Z,11.07
2022-08-19T16:12:31.562Z,11.24
2022-08-19T16:13:53.610Z,11.58
2022-08-19T16:15:14.910Z,6.92
2022-08-19T16:16:44.682Z,8.70
2022-08-19T16:18:10.642Z,9.61
2022-08-19T16:19:33.274Z,11.39
2022-08-19T16:20:55.500Z,10.86
2022-08-19T16:22:19.119Z,6.66
2022-08-19T16:25:32.815Z,8.88
2022-08-19T16:26:55.871Z,8.66
2022-08-19T16:28:23.992Z,11.21
2022-08-19T16:29:48.691Z,9.57
2022-08-19T16:31:25.659Z,9.58
2022-08-19T16:32:47.340Z,16.49
2022-08-19T16:34:11.989Z,13.52
2022-08-19T16:35:34.027Z,15.16
2022-08-19T16:36:58.485Z,15.96
2022-08-19T16:38:30.524Z,14.15
2022-08-19T16:39:54.045Z,13.80
2022-08-19T16:41:18.738Z,12.20
2022-08-19T16:42:40.363Z,11.24
2022-08-19T16:45:15.007Z,11.67
2022-08-19T16:46:39.746Z,11.38
2022-08-19T16:48:02.073Z,7.66
2022-08-19T16:49:54.540Z,9.69
2022-08-19T16:50:49.612Z,7.42
2022-08-19T16:52:23.872Z,9.93
2022-08-19T16:53:47.150Z,6.08
2022-08-19T16:55:13.594Z,7.48
2022-08-19T16:56:39.769Z,11.07
2022-08-19T16:58:02.851Z,10.66
2022-08-19T17:01:28.802Z,11.03
2022-08-19T17:04:14.833Z,10.92
2022-08-19T17:05:47.652Z,10.52
2022-08-19T17:07:12.187Z,12.72
2022-08-19T17:08:33.612Z,10.06
2022-08-19T17:09:56.445Z,14.48
2022-08-19T17:11:20.755Z,13.82
2022-08-19T17:12:47.235Z,18.21
2022-08-19T17:14:10.676Z,13.73
2022-08-19T17:15:37.074Z,14.94
2022-08-19T17:16:58.757Z,14.18
2022-08-19T17:18:20.846Z,11.63
2022-08-19T17:19:42.379Z,12.51
2022-08-19T17:21:04.168Z,12.33
2022-08-19T17:22:27.122Z,11.25
2022-08-19T17:23:49.744Z,12.94
2022-08-19T17:25:13.462Z,14.34
2022-08-19T17:26:36.515Z,18.12
2022-08-19T17:28:00.838Z,15.99
2022-08-19T17:29:22.405Z,16.96
2022-08-19T17:30:44.246Z,16.41
2022-08-19T17:32:06.237Z,16.68
2022-08-19T17:33:28.272Z,13.58
2022-08-19T17:34:52.369Z,18.06
2022-08-19T17:36:14.476Z,13.29
2022-08-19T17:37:39.734Z,13.41
2022-08-19T17:39:01.523Z,17.17
2022-08-19T17:40:23.843Z,13.30
2022-08-19T17:41:46.400Z,13.17
2022-08-19T17:43:09.428Z,14.70
2022-08-19T17:44:33.276Z,11.39
2022-08-19T17:45:54.542Z,14.22
2022-08-19T17:47:23.553Z,15.10
2022-08-19T17:48:51.458Z,15.64
2022-08-19T17:50:20.836Z,16.84
2022-08-19T17:51:45.101Z,13.76
2022-08-19T17:54:19.677Z,15.50
2022-08-19T17:55:45.096Z,10.37
2022-08-19T17:57:08.101Z,12.38
2022-08-19T17:58:32.444Z,10.53
2022-08-19T17:59:54.143Z,11.80
2022-08-19T18:01:16.207Z,10.38
2022-08-19T18:04:07.389Z,17.10
2022-08-19T18:05:40.255Z,12.11
2022-08-19T18:07:06.766Z,11.17
2022-08-19T18:08:32.189Z,10.52
2022-08-19T18:09:54.565Z,10.98
2022-08-19T18:11:18.801Z,14.56
2022-08-19T18:12:40.094Z,12.19
2022-08-19T18:14:06.018Z,13.13
2022-08-19T18:15:32.654Z,14.03
2022-08-19T18:16:57.552Z,18.03
2022-08-19T18:18:20.639Z,14.96
2022-08-19T18:19:49.325Z,12.14
2022-08-19T18:21:12.737Z,10.86
2022-08-19T18:22:37.185Z,12.44
2022-08-19T18:24:01.773Z,13.44
2022-08-19T18:25:25.258Z,12.77
2022-08-19T18:26:50.633Z,9.88
2022-08-19T18:28:13.977Z,10.59
2022-08-19T18:29:36.570Z,14.69
2022-08-19T18:30:59.916Z,21.21
2022-08-19T18:32:24.256Z,12.13
2022-08-19T18:33:46.164Z,12.88
2022-08-19T18:35:10.077Z,8.71
2022-08-19T18:36:52.554Z,10.58
2022-08-19T18:37:59.511Z,7.93
2022-08-19T18:39:23.044Z,9.62
2022-08-19T18:40:44.928Z,12.17
2022-08-19T18:42:12.804Z,10.61
2022-08-19T18:43:35.250Z,7.52
2022-08-19T18:44:59.884Z,8.48
2022-08-19T18:46:22.308Z,14.09
2022-08-19T18:47:49.386Z,9.97
2022-08-19T18:49:12.618Z,10.48
2022-08-19T18:50:34.123Z,12.34
2022-08-19T18:52:01.184Z,11.02
2022-08-19T18:53:22.968Z,9.46
2022-08-19T18:54:45.620Z,7.34
2022-08-19T18:56:10.058Z,10.77
2022-08-19T18:57:32.829Z,14.62
2022-08-19T18:58:55.156Z,10.04
2022-08-19T19:00:20.908Z,9.06
2022-08-19T19:01:44.965Z,8.88
2022-08-19T19:03:06.554Z,8.82
2022-08-19T19:04:31.092Z,8.38
2022-08-19T19:05:54.754Z,9.10
2022-08-19T19:07:16.231Z,10.64
2022-08-19T19:08:37.487Z,7.84
2022-08-19T19:09:59.099Z,7.63
2022-08-19T19:12:43.886Z,12.28
2022-08-19T19:14:08.410Z,8.36
2022-08-19T19:15:31.690Z,8.40
2022-08-19T19:18:28.487Z,7.91
2022-08-19T19:19:56.621Z,10.34
2022-08-19T19:21:19.242Z,11.44
2022-08-19T19:24:02.691Z,10.58
2022-08-19T19:25:26.427Z,9.13
2022-08-19T19:26:52.092Z,9.67
2022-08-19T19:28:16.022Z,9.84
2022-08-19T19:29:39.096Z,11.78
2022-08-19T19:31:00.541Z,12.19
2022-08-19T19:33:35.078Z,7.54
2022-08-19T19:34:59.154Z,10.06
2022-08-19T19:36:26.099Z,14.13
2022-08-19T19:37:47.881Z,7.51
2022-08-19T19:39:11.012Z,11.51
2022-08-19T19:40:33.404Z,12.16
2022-08-19T19:42:03.174Z,8.03
2022-08-19T19:43:24.921Z,11.94
2022-08-19T19:46:12.880Z,10.03
2022-08-19T19:47:34.458Z,9.79
2022-08-19T19:48:59.915Z,11.54
2022-08-19T19:50:21.836Z,11.21
2022-08-19T19:51:43.819Z,9.25
2022-08-19T19:53:05.165Z,12.66
2022-08-19T19:54:26.722Z,10.25
2022-08-19T19:55:50.137Z,12.90
2022-08-19T19:57:11.517Z,12.94
2022-08-19T19:58:34.414Z,8.12
2022-08-19T19:59:56.243Z,10.24
2022-08-19T20:01:21.634Z,13.57
2022-08-19T20:02:43.308Z,10.49
2022-08-19T20:04:05.396Z,9.94
2022-08-19T20:05:29.386Z,14.02
2022-08-19T20:06:54.382Z,10.89
2022-08-19T20:08:15.899Z,8.84
2022-08-19T20:09:58.831Z,10.60
2022-08-19T20:11:05.316Z,9.78
2022-08-19T20:12:26.981Z,12.61
2022-08-19T20:13:48.383Z,11.64
2022-08-19T20:15:15.173Z,10.50
2022-08-19T20:16:38.634Z,14.42
2022-08-19T20:18:01.535Z,11.73
2022-08-19T20:19:25.488Z,11.53
2022-08-19T20:20:46.975Z,13.64
2022-08-19T20:22:10.950Z,11.13
2022-08-19T20:23:38.581Z,11.97
2022-08-19T20:24:59.979Z,11.90
2022-08-19T20:27:44.741Z,13.20
2022-08-19T20:29:13.502Z,12.48
2022-08-19T20:30:36.033Z,12.58
2022-08-19T20:31:59.609Z,11.93
2022-08-19T20:33:21.464Z,12.95
2022-08-19T20:34:45.702Z,14.18
2022-08-19T20:36:08.037Z,11.42
2022-08-19T20:37:29.287Z,8.31
2022-08-19T20:38:51.191Z,15.12
2022-08-19T20:40:13.258Z,10.14
2022-08-19T20:41:36.580Z,9.96
2022-08-19T20:42:59.014Z,12.28
2022-08-19T20:44:22.566Z,8.12
2022-08-19T20:45:46.522Z,7.71
2022-08-19T20:47:07.867Z,14.68
2022-08-19T20:48:29.613Z,11.92
2022-08-19T20:49:51.085Z,14.06
2022-08-19T20:51:13.928Z,7.46
2022-08-19T20:52:35.419Z,10.08
2022-08-19T20:53:57.330Z,9.00
2022-08-19T20:55:18.768Z,10.72
2022-08-19T20:56:41.301Z,12.41
2022-08-19T20:58:02.461Z,9.32
2022-08-19T20:59:24.407Z,10.16
2022-08-19T21:00:46.232Z,9.76
2022-08-19T21:02:10.028Z,12.03
2022-08-19T21:03:35.127Z,11.23
2022-08-19T21:05:00.217Z,14.91
2022-08-19T21:06:22.105Z,8.52
2022-08-19T21:09:07.625Z,10.27
2022-08-19T21:10:31.269Z,13.16
2022-08-19T21:11:52.999Z,10.53
2022-08-19T21:13:16.007Z,10.13
2022-08-19T21:14:43.897Z,10.80
2022-08-19T21:16:09.408Z,8.38
2022-08-19T21:17:31.146Z,11.65
2022-08-19T21:18:52.524Z,12.00
2022-08-19T21:20:15.110Z,11.45
2022-08-19T21:21:36.828Z,9.41
2022-08-19T21:24:26.388Z,10.33
2022-08-19T21:25:54.539Z,10.14
2022-08-19T21:27:11.624Z,11.09
2022-08-19T21:28:36.078Z,7.78
2022-08-19T21:29:56.643Z,9.69
2022-08-19T21:31:17.890Z,11.59
2022-08-19T21:32:39.169Z,9.57
2022-08-19T21:34:00.594Z,9.82
2022-08-19T21:35:24.065Z,10.07
2022-08-19T21:36:46.027Z,10.37
2022-08-19T21:38:07.296Z,9.01
2022-08-19T21:39:28.750Z,11.17
2022-08-19T21:40:51.901Z,11.14
2022-08-19T21:42:13.329Z,12.69
2022-08-19T21:43:35.463Z,12.91
2022-08-19T21:44:59.565Z,15.59
2022-08-19T21:46:22.577Z,11.62
2022-08-19T21:47:44.264Z,9.19
2022-08-19T21:49:05.675Z,13.99
2022-08-19T21:50:29.547Z,9.87
2022-08-19T21:51:51.027Z,12.86
2022-08-19T21:53:17.323Z,11.86
2022-08-19T21:54:38.648Z,8.02
2022-08-19T21:56:01.267Z,12.50
2022-08-19T21:57:23.903Z,9.27
2022-08-19T21:58:45.092Z,20.66
2022-08-19T22:00:12.587Z,12.93
2022-08-19T22:01:36.834Z,11.99
2022-08-19T22:02:58.353Z,11.84
2022-08-19T22:04:19.624Z,11.23
2022-08-19T22:05:41.885Z,11.14
2022-08-19T22:07:03.412Z,12.87
2022-08-19T22:08:25.343Z,12.99
2022-08-19T22:09:47.426Z,23.07
2022-08-19T22:11:09.084Z,14.37
2022-08-19T22:12:34.176Z,13.07
2022-08-19T22:13:55.414Z,12.39
2022-08-19T22:15:17.322Z,9.98
2022-08-19T22:16:40.397Z,9.38
2022-08-19T22:18:03.693Z,7.53
2022-08-19T22:19:25.001Z,9.41
2022-08-19T22:20:46.723Z,10.66
2022-08-19T22:22:08.058Z,11.94
2022-08-19T22:23:29.483Z,10.25
2022-08-19T22:24:51.750Z,14.53
2022-08-19T22:26:15.721Z,13.17
2022-08-19T22:27:37.548Z,10.22
2022-08-19T22:29:00.659Z,12.85
2022-08-19T22:30:25.045Z,13.01
2022-08-19T22:31:54.366Z,11.50
2022-08-19T22:33:13.314Z,11.38
2022-08-19T22:34:34.434Z,12.87
2022-08-19T22:35:56.036Z,9.93
2022-08-19T22:37:17.388Z,11.08
2022-08-19T22:38:39.229Z,12.36
2022-08-19T22:40:00.663Z,9.70
2022-08-19T22:41:22.590Z,8.05
2022-08-19T22:42:44.857Z,9.69
2022-08-19T22:44:06.437Z,12.57
2022-08-19T22:45:29.970Z,8.61
2022-08-19T22:46:51.620Z,11.37
2022-08-19T22:48:13.913Z,11.93
2022-08-19T22:49:35.376Z,9.12
2022-08-19T22:50:57.660Z,8.79
2022-08-19T22:52:21.182Z,10.45
2022-08-19T22:53:44.164Z,9.81
2022-08-19T22:55:06.391Z,9.55
2022-08-19T22:56:29.326Z,8.66
2022-08-19T22:57:50.783Z,9.78
2022-08-19T22:59:11.973Z,12.56
2022-08-19T23:00:35.739Z,13.06
2022-08-19T23:01:58.653Z,13.10
2022-08-19T23:03:21.851Z,8.49
2022-08-19T23:04:44.937Z,11.75
2022-08-19T23:06:06.796Z,7.44
2022-08-19T23:07:30.789Z,7.01
2022-08-19T23:08:52.257Z,10.11
2022-08-19T23:10:15.867Z,6.81
2022-08-19T23:11:41.691Z,8.43
2022-08-19T23:13:02.564Z,9.93
2022-08-19T23:14:24.239Z,6.83
2022-08-19T23:15:45.547Z,9.14
2022-08-19T23:17:07.034Z,7.69
2022-08-19T23:18:28.296Z,8.83
2022-08-19T23:19:50.708Z,8.99
2022-08-19T23:21:12.230Z,11.42
2022-08-19T23:22:33.811Z,9.11
2022-08-19T23:23:54.901Z,9.74
2022-08-19T23:25:21.330Z,8.37
2022-08-19T23:26:42.848Z,11.23
2022-08-19T23:28:04.800Z,9.36
2022-08-19T23:29:25.941Z,8.41
2022-08-19T23:31:57.771Z,8.42
2022-08-19T23:34:32.401Z,8.18
2022-08-19T23:37:07.007Z,9.40
2022-08-19T23:38:29.219Z,9.11
2022-08-19T23:39:50.887Z,8.67
2022-08-19T23:41:12.913Z,9.14
2022-08-19T23:42:34.511Z,8.55
2022-08-19T23:43:57.739Z,7.53
2022-08-19T23:45:23.860Z,8.97
2022-08-19T23:46:55.052Z,8.02
2022-08-19T23:48:09.694Z,10.03
2022-08-19T23:49:31.054Z,10.76
2022-08-19T23:50:53.052Z,8.43
2022-08-19T23:52:14.734Z,7.72
2022-08-19T23:53:39.279Z,13.69
2022-08-19T23:55:01.705Z,8.39
2022-08-19T23:56:24.713Z,7.42
2022-08-19T23:57:47.327Z,11.15
2022-08-19T23:59:08.770Z,7.52
